createdAt,value
2023-05-01T00:08:12.159Z,11.00
2023-05-01T00:18:33.821Z,11.40
2023-05-01T00:28:56.901Z,11.10
2023-05-01T00:39:18.539Z,10.70
2023-05-01T00:49:43.860Z,10.90
2023-05-01T01:00:07.020Z,10.60
2023-05-01T01:10:45.868Z,10.30
2023-05-01T01:21:13.115Z,10.40
2023-05-01T01:31:46.030Z,10.10
2023-05-01T01:42:14.795Z,10.10
2023-05-01T01:52:39.371Z,10.30
2023-05-01T02:03:04.874Z,10.40
2023-05-01T02:13:29.744Z,10.30
2023-05-01T02:23:53.046Z,10.30
2023-05-01T02:34:15.009Z,10.10
2023-05-01T02:44:44.690Z,10.10
2023-05-01T02:55:08.468Z,9.80
2023-05-01T03:05:31.606Z,10.20
2023-05-01T03:15:53.557Z,9.90
2023-05-01T03:26:18.234Z,10.20
2023-05-01T03:36:40.354Z,10.30
2023-05-01T03:47:03.578Z,9.80
2023-05-01T03:57:30.936Z,10.10
2023-05-01T04:07:57.177Z,10.50
2023-05-01T04:18:19.041Z,11.00
2023-05-01T04:28:44.504Z,11.30
2023-05-01T04:39:08.339Z,11.60
2023-05-01T04:49:33.321Z,12.20
2023-05-01T04:59:57.736Z,12.00
2023-05-01T05:10:21.402Z,13.00
2023-05-01T05:20:55.449Z,13.80
2023-05-01T05:31:20.248Z,14.30
2023-05-01T05:41:41.736Z,14.40
2023-05-01T05:52:06.570Z,15.20
2023-05-01T06:02:29.215Z,15.40
2023-05-01T06:12:56.753Z,15.70
2023-05-01T06:23:28.728Z,16.60
2023-05-01T06:34:19.203Z,16.50
2023-05-01T06:44:50.205Z,17.50
2023-05-01T06:55:13.640Z,18.10
2023-05-01T07:05:35.637Z,19.10
2023-05-01T07:16:01.703Z,19.20
2023-05-01T07:26:23.822Z,19.90
2023-05-01T07:37:06.847Z,20.40
2023-05-01T07:48:10.610Z,20.10
2023-05-01T07:58:38.842Z,21.00
2023-05-01T08:09:00.596Z,21.60
2023-05-01T08:19:24.475Z,21.30
2023-05-01T08:29:50.218Z,22.10
2023-05-01T08:40:16.450Z,21.60
2023-05-01T08:50:50.630Z,22.30
2023-05-01T09:01:42.651Z,22.40
2023-05-01T09:12:14.122Z,23.20
2023-05-01T09:22:40.346Z,23.10
2023-05-01T09:33:09.693Z,24.10
2023-05-01T09:43:34.233Z,23.80
2023-05-01T09:54:00.262Z,23.20
2023-05-01T10:04:33.363Z,23.70
2023-05-01T10:14:55.267Z,24.70
2023-05-01T10:25:19.019Z,23.80
2023-05-01T10:35:46.640Z,24.30
2023-05-01T10:46:31.677Z,25.30
2023-05-01T10:56:54.232Z,25.20
2023-05-01T11:07:20.118Z,26.00
2023-05-01T11:17:49.749Z,24.80
2023-05-01T11:28:14.084Z,27.00
2023-05-01T11:38:36.133Z,25.80
2023-05-01T11:49:01.133Z,27.00
2023-05-01T11:59:23.088Z,26.30
2023-05-01T12:10:14.097Z,25.50
2023-05-01T12:20:37.734Z,25.60
2023-05-01T12:31:05.486Z,25.30
2023-05-01T12:41:49.282Z,26.00
2023-05-01T12:52:15.408Z,26.30
2023-05-01T13:02:37.319Z,25.90
2023-05-01T13:13:00.143Z,26.30
2023-05-01T13:23:21.457Z,26.40
2023-05-01T13:33:46.657Z,25.70
2023-05-01T13:44:08.089Z,26.90
2023-05-01T13:54:31.019Z,26.60
2023-05-01T14:04:52.877Z,26.50
2023-05-01T14:15:17.497Z,27.20
2023-05-01T14:25:40.207Z,27.00
2023-05-01T14:36:03.343Z,27.10
2023-05-01T14:46:32.626Z,26.80
2023-05-01T14:56:55.571Z,27.70
2023-05-01T15:07:17.187Z,27.50
2023-05-01T15:17:40.320Z,26.40
2023-05-01T15:28:02.054Z,26.20
2023-05-01T15:38:26.067Z,26.00
2023-05-01T15:48:48.108Z,25.30
2023-05-01T15:59:11.462Z,25.30
2023-05-01T16:09:33.467Z,26.10
2023-05-01T16:19:56.916Z,25.80
2023-05-01T16:30:18.611Z,25.80
2023-05-01T16:40:43.686Z,25.20
2023-05-01T16:51:07.275Z,25.00
2023-05-01T17:01:30.154Z,25.20
2023-05-01T17:11:51.729Z,25.10
2023-05-01T17:22:15.059Z,24.40
2023-05-01T17:32:37.578Z,24.10
2023-05-01T17:43:00.942Z,24.00
2023-05-01T17:53:23.637Z,23.70
2023-05-01T18:03:46.610Z,23.40
2023-05-01T18:14:08.227Z,22.90
2023-05-01T18:24:31.655Z,22.40
2023-05-01T18:34:53.492Z,21.90
2023-05-01T18:45:16.663Z,21.50
2023-05-01T18:55:38.243Z,20.90
2023-05-01T19:06:01.242Z,20.90
2023-05-01T19:16:23.425Z,20.50
2023-05-01T19:26:46.548Z,20.00
2023-05-01T19:37:08.111Z,19.90
2023-05-01T19:47:31.247Z,19.90
2023-05-01T19:57:53.250Z,19.70
2023-05-01T20:08:16.484Z,19.80
2023-05-01T20:18:38.293Z,19.50
2023-05-01T20:29:01.335Z,19.00
2023-05-01T20:39:23.142Z,18.90
2023-05-01T20:49:46.039Z,19.20
2023-05-01T21:00:08.735Z,19.00
2023-05-01T21:10:31.751Z,19.10
2023-05-01T21:20:53.768Z,19.20
2023-05-01T21:31:17.391Z,19.40
2023-05-01T21:41:39.988Z,19.30
2023-05-01T21:52:03.179Z,19.10
2023-05-01T22:02:24.845Z,19.00
2023-05-01T22:12:51.030Z,18.90
2023-05-01T22:23:12.854Z,19.40
2023-05-01T22:33:35.619Z,19.30
2023-05-01T22:43:57.237Z,19.20
2023-05-01T22:54:20.801Z,19.40
2023-05-01T23:04:42.738Z,19.30
2023-05-01T23:15:08.810Z,18.80
2023-05-01T23:25:30.442Z,18.80
2023-05-01T23:35:53.860Z,19.10
2023-05-01T23:46:15.795Z,18.40
2023-05-01T23:56:38.911Z,18.10
